sensor_id;sensor_type;location;lat;lon;timestamp;temperature;humidity
2174;DHT22;1093;51.424;11.764;2022-12-18T00:01:22;-9.00;1.40
2174;DHT22;1093;51.424;11.764;2022-12-18T00:03:53;-9.20;1.40
2174;DHT22;1093;51.424;11.764;2022-12-18T00:06:21;-9.20;1.40
2174;DHT22;1093;51.424;11.764;2022-12-18T00:08:50;-9.10;1.40
2174;DHT22;1093;51.424;11.764;2022-12-18T00:11:20;-9.20;1.40
2174;DHT22;1093;51.424;11.764;2022-12-18T00:13:49;-9.30;1.40
2174;DHT22;1093;51.424;11.764;2022-12-18T00:16:18;-9.30;1.40
2174;DHT22;1093;51.424;11.764;2022-12-18T00:18:48;-9.30;1.40
2174;DHT22;1093;51.424;11.764;2022-12-18T00:21:17;-9.30;1.40
2174;DHT22;1093;51.424;11.764;2022-12-18T00:23:46;-9.40;1.40
2174;DHT22;1093;51.424;11.764;2022-12-18T00:26:15;-9.40;1.40
2174;DHT22;1093;51.424;11.764;2022-12-18T00:28:44;-9.40;1.40
2174;DHT22;1093;51.424;11.764;2022-12-18T00:31:13;-9.40;1.40
2174;DHT22;1093;51.424;11.764;2022-12-18T00:33:42;-9.40;1.40
2174;DHT22;1093;51.424;11.764;2022-12-18T00:36:11;-9.50;1.40
2174;DHT22;1093;51.424;11.764;2022-12-18T00:38:41;-9.50;1.40
2174;DHT22;1093;51.424;11.764;2022-12-18T00:41:11;-9.50;1.40
2174;DHT22;1093;51.424;11.764;2022-12-18T00:43:39;-9.50;1.40
2174;DHT22;1093;51.424;11.764;2022-12-18T00:46:07;-9.50;1.40
2174;DHT22;1093;51.424;11.764;2022-12-18T00:48:35;-9.50;1.40
2174;DHT22;1093;51.424;11.764;2022-12-18T00:51:03;-9.60;1.40
2174;DHT22;1093;51.424;11.764;2022-12-18T00:53:33;-9.60;1.40
2174;DHT22;1093;51.424;11.764;2022-12-18T00:56:05;-9.70;1.40
2174;DHT22;1093;51.424;11.764;2022-12-18T00:58:35;-9.60;1.40
2174;DHT22;1093;51.424;11.764;2022-12-18T01:01:04;-9.60;1.40
2174;DHT22;1093;51.424;11.764;2022-12-18T01:03:33;-9.60;1.40
2174;DHT22;1093;51.424;11.764;2022-12-18T01:06:06;-9.60;1.40
2174;DHT22;1093;51.424;11.764;2022-12-18T01:08:35;-9.60;1.40
2174;DHT22;1093;51.424;11.764;2022-12-18T01:11:09;-9.60;1.40
2174;DHT22;1093;51.424;11.764;2022-12-18T01:13:38;-9.70;1.40
2174;DHT22;1093;51.424;11.764;2022-12-18T01:16:06;-9.70;1.40
2174;DHT22;1093;51.424;11.764;2022-12-18T01:18:37;-9.70;1.40
2174;DHT22;1093;51.424;11.764;2022-12-18T01:21:07;-9.70;1.40
2174;DHT22;1093;51.424;11.764;2022-12-18T01:23:37;-9.60;1.40
2174;DHT22;1093;51.424;11.764;2022-12-18T01:26:09;-9.60;1.40
2174;DHT22;1093;51.424;11.764;2022-12-18T01:28:38;-9.60;1.40
2174;DHT22;1093;51.424;11.764;2022-12-18T01:31:14;-9.70;1.40
2174;DHT22;1093;51.424;11.764;2022-12-18T01:33:42;-9.60;1.40
2174;DHT22;1093;51.424;11.764;2022-12-18T01:36:17;-9.70;1.40
2174;DHT22;1093;51.424;11.764;2022-12-18T01:38:55;-9.60;1.40
2174;DHT22;1093;51.424;11.764;2022-12-18T01:41:33;-9.70;1.40
2174;DHT22;1093;51.424;11.764;2022-12-18T01:44:58;-9.60;1.40
2174;DHT22;1093;51.424;11.764;2022-12-18T01:47:30;-9.60;1.40
2174;DHT22;1093;51.424;11.764;2022-12-18T01:50:02;-9.60;1.40
2174;DHT22;1093;51.424;11.764;2022-12-18T01:52:36;-9.60;1.40
2174;DHT22;1093;51.424;11.764;2022-12-18T01:55:06;-9.60;1.40
2174;DHT22;1093;51.424;11.764;2022-12-18T01:57:39;-9.60;1.40
2174;DHT22;1093;51.424;11.764;2022-12-18T02:00:14;-9.70;1.40
2174;DHT22;1093;51.424;11.764;2022-12-18T02:02:44;-9.70;1.40
2174;DHT22;1093;51.424;11.764;2022-12-18T02:05:23;-9.70;1.40
2174;DHT22;1093;51.424;11.764;2022-12-18T02:08:02;-9.70;1.40
2174;DHT22;1093;51.424;11.764;2022-12-18T02:10:41;-9.60;1.40
2174;DHT22;1093;51.424;11.764;2022-12-18T02:13:20;-9.60;1.40
2174;DHT22;1093;51.424;11.764;2022-12-18T02:15:57;-9.60;1.40
2174;DHT22;1093;51.424;11.764;2022-12-18T02:18:32;-9.70;1.40
2174;DHT22;1093;51.424;11.764;2022-12-18T02:21:10;-9.70;1.40
2174;DHT22;1093;51.424;11.764;2022-12-18T02:23:47;-9.70;1.40
2174;DHT22;1093;51.424;11.764;2022-12-18T02:26:24;-9.70;1.40
2174;DHT22;1093;51.424;11.764;2022-12-18T02:28:56;-9.60;1.40
2174;DHT22;1093;51.424;11.764;2022-12-18T02:31:39;-9.70;1.40
2174;DHT22;1093;51.424;11.764;2022-12-18T02:34:09;-9.70;1.40
2174;DHT22;1093;51.424;11.764;2022-12-18T02:36:41;-9.70;1.40
2174;DHT22;1093;51.424;11.764;2022-12-18T02:39:12;-9.70;1.40
2174;DHT22;1093;51.424;11.764;2022-12-18T02:41:51;-9.70;1.40
2174;DHT22;1093;51.424;11.764;2022-12-18T02:44:27;-9.70;1.40
2174;DHT22;1093;51.424;11.764;2022-12-18T02:46:57;-9.70;1.40
2174;DHT22;1093;51.424;11.764;2022-12-18T02:49:36;-9.70;1.40
2174;DHT22;1093;51.424;11.764;2022-12-18T02:52:14;-9.70;1.40
2174;DHT22;1093;51.424;11.764;2022-12-18T02:54:57;-9.70;1.40
2174;DHT22;1093;51.424;11.764;2022-12-18T02:57:40;-9.80;1.40
2174;DHT22;1093;51.424;11.764;2022-12-18T03:00:14;-9.80;1.40
2174;DHT22;1093;51.424;11.764;2022-12-18T03:02:47;-9.80;1.40
2174;DHT22;1093;51.424;11.764;2022-12-18T03:05:22;-9.90;1.40
2174;DHT22;1093;51.424;11.764;2022-12-18T03:07:57;-9.90;1.40
2174;DHT22;1093;51.424;11.764;2022-12-18T03:10:31;-9.80;1.40
2174;DHT22;1093;51.424;11.764;2022-12-18T03:13:07;-9.90;1.40
2174;DHT22;1093;51.424;11.764;2022-12-18T03:15:42;-10.00;1.40
2174;DHT22;1093;51.424;11.764;2022-12-18T03:18:15;-10.10;1.40
2174;DHT22;1093;51.424;11.764;2022-12-18T03:20:47;-10.00;1.40
2174;DHT22;1093;51.424;11.764;2022-12-18T03:23:34;-10.00;1.40
2174;DHT22;1093;51.424;11.764;2022-12-18T03:26:07;-10.00;1.40
2174;DHT22;1093;51.424;11.764;2022-12-18T03:28:46;-10.00;1.40
2174;DHT22;1093;51.424;11.764;2022-12-18T03:31:15;-10.00;1.40
2174;DHT22;1093;51.424;11.764;2022-12-18T03:33:53;-10.10;1.40
2174;DHT22;1093;51.424;11.764;2022-12-18T03:36:29;-10.10;1.40
2174;DHT22;1093;51.424;11.764;2022-12-18T03:39:08;-10.20;1.40
2174;DHT22;1093;51.424;11.764;2022-12-18T03:41:47;-10.20;1.40
2174;DHT22;1093;51.424;11.764;2022-12-18T03:44:30;-10.20;1.40
2174;DHT22;1093;51.424;11.764;2022-12-18T03:47:09;-10.30;1.40
2174;DHT22;1093;51.424;11.764;2022-12-18T03:49:47;-10.30;1.40
2174;DHT22;1093;51.424;11.764;2022-12-18T03:52:20;-10.40;1.40
2174;DHT22;1093;51.424;11.764;2022-12-18T03:54:51;-10.40;1.40
2174;DHT22;1093;51.424;11.764;2022-12-18T03:57:23;-10.50;1.40
2174;DHT22;1093;51.424;11.764;2022-12-18T04:00:04;-10.50;1.40
2174;DHT22;1093;51.424;11.764;2022-12-18T04:02:38;-10.60;1.40
2174;DHT22;1093;51.424;11.764;2022-12-18T04:05:11;-10.70;1.40
2174;DHT22;1093;51.424;11.764;2022-12-18T04:07:40;-10.70;1.40
2174;DHT22;1093;51.424;11.764;2022-12-18T04:10:09;-10.70;1.40
2174;DHT22;1093;51.424;11.764;2022-12-18T04:12:38;-10.80;1.40
2174;DHT22;1093;51.424;11.764;2022-12-18T04:15:08;-10.90;1.40
2174;DHT22;1093;51.424;11.764;2022-12-18T04:17:42;-10.90;1.40
2174;DHT22;1093;51.424;11.764;2022-12-18T04:20:14;-10.90;1.40
2174;DHT22;1093;51.424;11.764;2022-12-18T04:22:50;-10.90;1.40
2174;DHT22;1093;51.424;11.764;2022-12-18T04:25:19;-11.00;1.40
2174;DHT22;1093;51.424;11.764;2022-12-18T04:27:47;-11.10;1.40
2174;DHT22;1093;51.424;11.764;2022-12-18T04:30:17;-11.20;1.40
2174;DHT22;1093;51.424;11.764;2022-12-18T04:32:47;-11.30;1.40
2174;DHT22;1093;51.424;11.764;2022-12-18T04:35:14;-11.30;1.40
2174;DHT22;1093;51.424;11.764;2022-12-18T04:37:44;-11.30;1.40
2174;DHT22;1093;51.424;11.764;2022-12-18T04:40:16;-11.30;1.40
2174;DHT22;1093;51.424;11.764;2022-12-18T04:42:51;-11.30;1.40
2174;DHT22;1093;51.424;11.764;2022-12-18T04:45:23;-11.30;1.40
2174;DHT22;1093;51.424;11.764;2022-12-18T04:47:59;-11.30;1.40
2174;DHT22;1093;51.424;11.764;2022-12-18T04:50:27;-11.40;1.40
2174;DHT22;1093;51.424;11.764;2022-12-18T04:52:57;-11.40;1.40
2174;DHT22;1093;51.424;11.764;2022-12-18T04:55:25;-11.50;1.40
2174;DHT22;1093;51.424;11.764;2022-12-18T04:57:55;-11.50;1.40
2174;DHT22;1093;51.424;11.764;2022-12-18T05:00:25;-11.50;1.40
2174;DHT22;1093;51.424;11.764;2022-12-18T05:03:01;-11.50;1.40
2174;DHT22;1093;51.424;11.764;2022-12-18T05:05:29;-11.50;1.40
2174;DHT22;1093;51.424;11.764;2022-12-18T05:08:02;-11.50;1.40
2174;DHT22;1093;51.424;11.764;2022-12-18T05:10:33;-11.50;1.40
2174;DHT22;1093;51.424;11.764;2022-12-18T05:13:08;-11.50;1.40
2174;DHT22;1093;51.424;11.764;2022-12-18T05:15:38;-11.60;1.40
2174;DHT22;1093;51.424;11.764;2022-12-18T05:18:09;-11.60;1.40
2174;DHT22;1093;51.424;11.764;2022-12-18T05:20:38;-11.70;1.40
2174;DHT22;1093;51.424;11.764;2022-12-18T05:23:08;-11.70;1.40
2174;DHT22;1093;51.424;11.764;2022-12-18T05:25:46;-11.70;1.40
2174;DHT22;1093;51.424;11.764;2022-12-18T05:28:20;-11.70;1.40
2174;DHT22;1093;51.424;11.764;2022-12-18T05:30:58;-11.70;1.40
2174;DHT22;1093;51.424;11.764;2022-12-18T05:33:29;-11.70;1.40
2174;DHT22;1093;51.424;11.764;2022-12-18T05:35:59;-11.60;1.40
2174;DHT22;1093;51.424;11.764;2022-12-18T05:38:30;-11.70;1.40
2174;DHT22;1093;51.424;11.764;2022-12-18T05:41:04;-11.70;1.40
2174;DHT22;1093;51.424;11.764;2022-12-18T05:43:38;-11.70;1.40
2174;DHT22;1093;51.424;11.764;2022-12-18T05:46:11;-11.70;1.40
2174;DHT22;1093;51.424;11.764;2022-12-18T05:48:45;-11.70;1.40
2174;DHT22;1093;51.424;11.764;2022-12-18T05:51:22;-11.60;1.40
2174;DHT22;1093;51.424;11.764;2022-12-18T05:53:56;-11.70;1.40
2174;DHT22;1093;51.424;11.764;2022-12-18T05:56:36;-11.70;1.40
2174;DHT22;1093;51.424;11.764;2022-12-18T05:59:20;-11.70;1.40
2174;DHT22;1093;51.424;11.764;2022-12-18T06:01:57;-11.70;1.40
2174;DHT22;1093;51.424;11.764;2022-12-18T06:04:27;-11.70;1.40
2174;DHT22;1093;51.424;11.764;2022-12-18T06:07:04;-11.70;1.40
2174;DHT22;1093;51.424;11.764;2022-12-18T06:09:35;-11.70;1.40
2174;DHT22;1093;51.424;11.764;2022-12-18T06:12:10;-11.80;1.40
2174;DHT22;1093;51.424;11.764;2022-12-18T06:14:43;-11.80;1.40
2174;DHT22;1093;51.424;11.764;2022-12-18T06:17:23;-11.80;1.40
2174;DHT22;1093;51.424;11.764;2022-12-18T06:19:59;-11.80;1.40
2174;DHT22;1093;51.424;11.764;2022-12-18T06:22:42;-11.80;1.40
2174;DHT22;1093;51.424;11.764;2022-12-18T06:25:25;-11.80;1.40
2174;DHT22;1093;51.424;11.764;2022-12-18T06:27:58;-11.90;1.40
2174;DHT22;1093;51.424;11.764;2022-12-18T06:30:35;-11.80;1.40
2174;DHT22;1093;51.424;11.764;2022-12-18T06:33:17;-11.80;1.40
2174;DHT22;1093;51.424;11.764;2022-12-18T06:35:52;-11.80;1.40
2174;DHT22;1093;51.424;11.764;2022-12-18T06:38:24;-11.90;1.40
2174;DHT22;1093;51.424;11.764;2022-12-18T06:41:07;-11.90;1.40
2174;DHT22;1093;51.424;11.764;2022-12-18T06:43:51;-11.90;1.40
2174;DHT22;1093;51.424;11.764;2022-12-18T06:46:33;-11.90;1.40
2174;DHT22;1093;51.424;11.764;2022-12-18T06:49:20;-11.80;1.40
2174;DHT22;1093;51.424;11.764;2022-12-18T06:51:54;-11.80;1.40
2174;DHT22;1093;51.424;11.764;2022-12-18T06:54:29;-11.70;1.40
2174;DHT22;1093;51.424;11.764;2022-12-18T06:57:20;-11.80;1.40
2174;DHT22;1093;51.424;11.764;2022-12-18T06:59:51;-11.70;1.40
2174;DHT22;1093;51.424;11.764;2022-12-18T07:02:19;-11.70;1.40
2174;DHT22;1093;51.424;11.764;2022-12-18T07:04:57;-11.70;1.40
2174;DHT22;1093;51.424;11.764;2022-12-18T07:07:33;-11.70;1.40
2174;DHT22;1093;51.424;11.764;2022-12-18T07:10:11;-11.80;1.40
2174;DHT22;1093;51.424;11.764;2022-12-18T07:13:02;-11.80;1.40
2174;DHT22;1093;51.424;11.764;2022-12-18T07:15:37;-11.80;1.40
2174;DHT22;1093;51.424;11.764;2022-12-18T07:18:08;-11.80;1.40
2174;DHT22;1093;51.424;11.764;2022-12-18T07:20:41;-11.80;1.40
2174;DHT22;1093;51.424;11.764;2022-12-18T07:23:12;-11.80;1.40
2174;DHT22;1093;51.424;11.764;2022-12-18T07:25:51;-11.80;1.40
2174;DHT22;1093;51.424;11.764;2022-12-18T07:28:24;-11.80;1.40
2174;DHT22;1093;51.424;11.764;2022-12-18T07:31:02;-11.80;1.40
2174;DHT22;1093;51.424;11.764;2022-12-18T07:33:43;-11.80;1.40
2174;DHT22;1093;51.424;11.764;2022-12-18T07:36:18;-11.80;1.40
2174;DHT22;1093;51.424;11.764;2022-12-18T07:38:50;-11.80;1.40
2174;DHT22;1093;51.424;11.764;2022-12-18T07:41:40;-11.80;1.40
2174;DHT22;1093;51.424;11.764;2022-12-18T07:44:39;-11.80;1.40
2174;DHT22;1093;51.424;11.764;2022-12-18T07:47:19;-11.80;1.40
2174;DHT22;1093;51.424;11.764;2022-12-18T07:49:57;-11.80;1.40
2174;DHT22;1093;51.424;11.764;2022-12-18T07:52:30;-11.70;1.40
2174;DHT22;1093;51.424;11.764;2022-12-18T07:54:59;-11.70;1.40
2174;DHT22;1093;51.424;11.764;2022-12-18T07:57:29;-11.70;1.40
2174;DHT22;1093;51.424;11.764;2022-12-18T08:00:00;-11.70;1.40
2174;DHT22;1093;51.424;11.764;2022-12-18T08:02:30;-11.70;1.40
2174;DHT22;1093;51.424;11.764;2022-12-18T08:04:57;-11.70;1.40
2174;DHT22;1093;51.424;11.764;2022-12-18T08:07:24;-11.70;1.40
2174;DHT22;1093;51.424;11.764;2022-12-18T08:09:58;-11.70;1.40
2174;DHT22;1093;51.424;11.764;2022-12-18T08:12:25;-11.70;1.40
2174;DHT22;1093;51.424;11.764;2022-12-18T08:14:52;-11.70;1.40
2174;DHT22;1093;51.424;11.764;2022-12-18T08:17:19;-11.70;1.40
2174;DHT22;1093;51.424;11.764;2022-12-18T08:19:52;-11.70;1.40
2174;DHT22;1093;51.424;11.764;2022-12-18T08:22:35;-11.70;1.40
2174;DHT22;1093;51.424;11.764;2022-12-18T08:25:06;-11.70;1.40
2174;DHT22;1093;51.424;11.764;2022-12-18T08:27:33;-11.70;1.40
2174;DHT22;1093;51.424;11.764;2022-12-18T08:30:01;-11.70;1.40
2174;DHT22;1093;51.424;11.764;2022-12-18T08:32:29;-11.70;1.40
2174;DHT22;1093;51.424;11.764;2022-12-18T08:34:59;-11.60;1.40
2174;DHT22;1093;51.424;11.764;2022-12-18T08:37:35;-11.60;1.40
2174;DHT22;1093;51.424;11.764;2022-12-18T08:40:05;-11.50;1.40
2174;DHT22;1093;51.424;11.764;2022-12-18T08:42:32;-11.50;1.40
2174;DHT22;1093;51.424;11.764;2022-12-18T08:45:17;-11.50;1.40
2174;DHT22;1093;51.424;11.764;2022-12-18T08:47:46;-11.40;1.40
2174;DHT22;1093;51.424;11.764;2022-12-18T08:50:48;-11.40;1.40
2174;DHT22;1093;51.424;11.764;2022-12-18T08:53:10;-11.30;1.40
2174;DHT22;1093;51.424;11.764;2022-12-18T08:55:41;-11.30;1.40
2174;DHT22;1093;51.424;11.764;2022-12-18T08:58:29;-11.20;1.40
2174;DHT22;1093;51.424;11.764;2022-12-18T09:01:00;-11.20;1.40
2174;DHT22;1093;51.424;11.764;2022-12-18T09:03:32;-11.20;1.40
2174;DHT22;1093;51.424;11.764;2022-12-18T09:06:01;-11.10;1.40
2174;DHT22;1093;51.424;11.764;2022-12-18T09:08:33;-11.00;1.40
2174;DHT22;1093;51.424;11.764;2022-12-18T09:11:25;-10.90;1.40
2174;DHT22;1093;51.424;11.764;2022-12-18T09:14:07;-10.80;1.40
2174;DHT22;1093;51.424;11.764;2022-12-18T09:16:38;-10.70;1.40
2174;DHT22;1093;51.424;11.764;2022-12-18T09:19:34;-10.70;1.40
2174;DHT22;1093;51.424;11.764;2022-12-18T09:22:20;-10.60;1.40
2174;DHT22;1093;51.424;11.764;2022-12-18T09:25:23;-10.60;1.40
2174;DHT22;1093;51.424;11.764;2022-12-18T09:28:11;-10.50;1.40
2174;DHT22;1093;51.424;11.764;2022-12-18T09:30:52;-10.50;1.40
2174;DHT22;1093;51.424;11.764;2022-12-18T09:33:25;-10.50;1.40
2174;DHT22;1093;51.424;11.764;2022-12-18T09:36:05;-10.40;1.40
2174;DHT22;1093;51.424;11.764;2022-12-18T09:38:49;-10.30;1.40
2174;DHT22;1093;51.424;11.764;2022-12-18T09:48:39;-10.10;1.40
2174;DHT22;1093;51.424;11.764;2022-12-18T09:51:36;-10.00;1.40
2174;DHT22;1093;51.424;11.764;2022-12-18T09:54:46;-10.00;1.40
2174;DHT22;1093;51.424;11.764;2022-12-18T09:58:00;-9.90;1.40
2174;DHT22;1093;51.424;11.764;2022-12-18T10:04:36;-9.70;1.40
2174;DHT22;1093;51.424;11.764;2022-12-18T10:07:29;-9.60;1.40
2174;DHT22;1093;51.424;11.764;2022-12-18T10:10:09;-9.50;1.40
2174;DHT22;1093;51.424;11.764;2022-12-18T10:12:49;-9.40;1.40
2174;DHT22;1093;51.424;11.764;2022-12-18T10:15:29;-9.40;1.40
2174;DHT22;1093;51.424;11.764;2022-12-18T10:18:19;-9.30;1.40
2174;DHT22;1093;51.424;11.764;2022-12-18T10:21:03;-9.20;1.40
2174;DHT22;1093;51.424;11.764;2022-12-18T10:23:47;-9.20;1.40
2174;DHT22;1093;51.424;11.764;2022-12-18T10:26:27;-9.10;1.40
2174;DHT22;1093;51.424;11.764;2022-12-18T10:29:04;-9.10;1.40
2174;DHT22;1093;51.424;11.764;2022-12-18T10:31:51;-9.00;1.40
2174;DHT22;1093;51.424;11.764;2022-12-18T10:34:25;-9.00;1.40
2174;DHT22;1093;51.424;11.764;2022-12-18T10:37:04;-9.00;1.40
2174;DHT22;1093;51.424;11.764;2022-12-18T10:39:36;-8.90;1.40
2174;DHT22;1093;51.424;11.764;2022-12-18T10:42:16;-8.80;1.40
2174;DHT22;1093;51.424;11.764;2022-12-18T10:44:48;-8.80;1.40
2174;DHT22;1093;51.424;11.764;2022-12-18T10:47:54;-8.80;1.40
2174;DHT22;1093;51.424;11.764;2022-12-18T10:50:58;-8.70;1.40
2174;DHT22;1093;51.424;11.764;2022-12-18T10:57:45;-8.60;1.40
2174;DHT22;1093;51.424;11.764;2022-12-18T11:01:01;-8.60;1.40
2174;DHT22;1093;51.424;11.764;2022-12-18T11:04:25;-8.60;1.40
2174;DHT22;1093;51.424;11.764;2022-12-18T11:07:11;-8.50;1.40
2174;DHT22;1093;51.424;11.764;2022-12-18T11:10:15;-8.40;1.40
2174;DHT22;1093;51.424;11.764;2022-12-18T11:13:16;-8.30;1.40
2174;DHT22;1093;51.424;11.764;2022-12-18T11:15:47;-8.30;1.40
2174;DHT22;1093;51.424;11.764;2022-12-18T11:18:25;-8.20;1.40
2174;DHT22;1093;51.424;11.764;2022-12-18T11:20:58;-8.20;1.40
2174;DHT22;1093;51.424;11.764;2022-12-18T11:23:27;-8.10;1.40
2174;DHT22;1093;51.424;11.764;2022-12-18T11:26:06;-8.10;1.40
2174;DHT22;1093;51.424;11.764;2022-12-18T11:28:46;-8.00;1.40
2174;DHT22;1093;51.424;11.764;2022-12-18T11:31:27;-8.00;1.40
2174;DHT22;1093;51.424;11.764;2022-12-18T11:34:07;-7.90;1.40
2174;DHT22;1093;51.424;11.764;2022-12-18T11:36:49;-7.90;1.40
2174;DHT22;1093;51.424;11.764;2022-12-18T11:39:34;-7.90;1.40
2174;DHT22;1093;51.424;11.764;2022-12-18T11:42:12;-7.90;1.40
2174;DHT22;1093;51.424;11.764;2022-12-18T11:44:57;-7.80;1.40
2174;DHT22;1093;51.424;11.764;2022-12-18T11:47:34;-7.80;1.40
2174;DHT22;1093;51.424;11.764;2022-12-18T11:50:17;-7.80;1.40
2174;DHT22;1093;51.424;11.764;2022-12-18T11:52:49;-7.70;1.40
2174;DHT22;1093;51.424;11.764;2022-12-18T11:55:33;-7.70;1.40
2174;DHT22;1093;51.424;11.764;2022-12-18T11:58:17;-7.70;1.40
2174;DHT22;1093;51.424;11.764;2022-12-18T12:01:02;-7.60;1.40
2174;DHT22;1093;51.424;11.764;2022-12-18T12:07:00;-7.50;1.40
2174;DHT22;1093;51.424;11.764;2022-12-18T12:09:40;-7.50;1.40
2174;DHT22;1093;51.424;11.764;2022-12-18T12:12:31;-7.40;1.40
2174;DHT22;1093;51.424;11.764;2022-12-18T12:15:22;-7.50;1.40
2174;DHT22;1093;51.424;11.764;2022-12-18T12:18:01;-7.40;1.40
2174;DHT22;1093;51.424;11.764;2022-12-18T12:20:42;-7.40;1.40
2174;DHT22;1093;51.424;11.764;2022-12-18T12:23:26;-7.30;1.40
2174;DHT22;1093;51.424;11.764;2022-12-18T12:26:02;-7.30;1.40
2174;DHT22;1093;51.424;11.764;2022-12-18T12:28:59;-7.20;1.40
2174;DHT22;1093;51.424;11.764;2022-12-18T12:31:40;-7.20;1.40
2174;DHT22;1093;51.424;11.764;2022-12-18T12:34:25;-7.10;1.40
2174;DHT22;1093;51.424;11.764;2022-12-18T12:37:09;-7.10;1.40
2174;DHT22;1093;51.424;11.764;2022-12-18T12:39:43;-7.00;1.40
2174;DHT22;1093;51.424;11.764;2022-12-18T12:42:18;-7.00;1.40
2174;DHT22;1093;51.424;11.764;2022-12-18T12:45:06;-6.90;1.40
2174;DHT22;1093;51.424;11.764;2022-12-18T12:47:42;-6.80;1.40
2174;DHT22;1093;51.424;11.764;2022-12-18T12:50:17;-6.80;1.40
2174;DHT22;1093;51.424;11.764;2022-12-18T12:52:47;-6.70;1.40
2174;DHT22;1093;51.424;11.764;2022-12-18T12:55:18;-6.70;1.40
2174;DHT22;1093;51.424;11.764;2022-12-18T12:57:52;-6.60;1.40
2174;DHT22;1093;51.424;11.764;2022-12-18T13:00:23;-6.60;1.40
2174;DHT22;1093;51.424;11.764;2022-12-18T13:02:56;-6.50;1.40
2174;DHT22;1093;51.424;11.764;2022-12-18T13:05:34;-6.50;1.40
2174;DHT22;1093;51.424;11.764;2022-12-18T13:08:03;-6.40;1.40
2174;DHT22;1093;51.424;11.764;2022-12-18T13:10:34;-6.40;1.40
2174;DHT22;1093;51.424;11.764;2022-12-18T13:13:04;-6.30;1.40
2174;DHT22;1093;51.424;11.764;2022-12-18T13:15:36;-6.30;1.40
2174;DHT22;1093;51.424;11.764;2022-12-18T13:18:15;-6.30;1.40
2174;DHT22;1093;51.424;11.764;2022-12-18T13:20:47;-6.30;1.40
2174;DHT22;1093;51.424;11.764;2022-12-18T13:23:30;-6.30;1.40
2174;DHT22;1093;51.424;11.764;2022-12-18T13:25:58;-6.20;1.40
2174;DHT22;1093;51.424;11.764;2022-12-18T13:28:50;-6.20;1.40
2174;DHT22;1093;51.424;11.764;2022-12-18T13:34:22;-6.30;1.40
2174;DHT22;1093;51.424;11.764;2022-12-18T13:37:37;-6.30;1.40
2174;DHT22;1093;51.424;11.764;2022-12-18T13:40:58;-6.40;1.40
2174;DHT22;1093;51.424;11.764;2022-12-18T13:43:33;-6.40;1.40
2174;DHT22;1093;51.424;11.764;2022-12-18T13:46:16;-6.40;1.40
2174;DHT22;1093;51.424;11.764;2022-12-18T13:48:54;-6.40;1.40
2174;DHT22;1093;51.424;11.764;2022-12-18T13:51:25;-6.50;1.40
2174;DHT22;1093;51.424;11.764;2022-12-18T13:53:59;-6.50;1.40
2174;DHT22;1093;51.424;11.764;2022-12-18T13:56:29;-6.60;1.40
2174;DHT22;1093;51.424;11.764;2022-12-18T13:59:15;-6.70;1.40
2174;DHT22;1093;51.424;11.764;2022-12-18T14:01:44;-6.80;1.40
2174;DHT22;1093;51.424;11.764;2022-12-18T14:04:18;-6.80;1.40
2174;DHT22;1093;51.424;11.764;2022-12-18T14:06:46;-6.80;1.40
2174;DHT22;1093;51.424;11.764;2022-12-18T14:09:20;-6.80;1.40
2174;DHT22;1093;51.424;11.764;2022-12-18T14:11:48;-6.90;1.40
2174;DHT22;1093;51.424;11.764;2022-12-18T14:14:17;-6.90;1.40
2174;DHT22;1093;51.424;11.764;2022-12-18T14:16:45;-6.90;1.40
2174;DHT22;1093;51.424;11.764;2022-12-18T14:19:15;-6.90;1.40
2174;DHT22;1093;51.424;11.764;2022-12-18T14:21:46;-7.00;1.40
2174;DHT22;1093;51.424;11.764;2022-12-18T14:24:15;-7.00;1.40
2174;DHT22;1093;51.424;11.764;2022-12-18T14:26:44;-7.00;1.40
2174;DHT22;1093;51.424;11.764;2022-12-18T14:29:25;-7.10;1.40
2174;DHT22;1093;51.424;11.764;2022-12-18T14:32:06;-7.10;1.40
2174;DHT22;1093;51.424;11.764;2022-12-18T14:34:33;-7.10;1.40
2174;DHT22;1093;51.424;11.764;2022-12-18T14:37:00;-7.20;1.40
2174;DHT22;1093;51.424;11.764;2022-12-18T14:39:27;-7.20;1.40
2174;DHT22;1093;51.424;11.764;2022-12-18T14:41:55;-7.20;1.40
2174;DHT22;1093;51.424;11.764;2022-12-18T14:44:22;-7.20;1.40
2174;DHT22;1093;51.424;11.764;2022-12-18T14:46:50;-7.20;1.40
2174;DHT22;1093;51.424;11.764;2022-12-18T14:49:23;-7.20;1.40
2174;DHT22;1093;51.424;11.764;2022-12-18T14:51:53;-7.30;1.40
2174;DHT22;1093;51.424;11.764;2022-12-18T14:54:22;-7.30;1.40
2174;DHT22;1093;51.424;11.764;2022-12-18T14:56:51;-7.30;1.40
2174;DHT22;1093;51.424;11.764;2022-12-18T14:59:21;-7.40;1.40
2174;DHT22;1093;51.424;11.764;2022-12-18T15:01:57;-7.40;1.40
2174;DHT22;1093;51.424;11.764;2022-12-18T15:04:27;-7.40;1.40
2174;DHT22;1093;51.424;11.764;2022-12-18T15:07:07;-7.40;1.40
2174;DHT22;1093;51.424;11.764;2022-12-18T15:09:34;-7.40;1.40
2174;DHT22;1093;51.424;11.764;2022-12-18T15:12:02;-7.40;1.40
2174;DHT22;1093;51.424;11.764;2022-12-18T15:14:34;-7.50;1.40
2174;DHT22;1093;51.424;11.764;2022-12-18T15:17:03;-7.40;1.40
2174;DHT22;1093;51.424;11.764;2022-12-18T15:19:38;-7.40;1.40
2174;DHT22;1093;51.424;11.764;2022-12-18T15:22:18;-7.40;1.40
2174;DHT22;1093;51.424;11.764;2022-12-18T15:25:02;-7.40;1.40
2174;DHT22;1093;51.424;11.764;2022-12-18T15:27:45;-7.40;1.40
2174;DHT22;1093;51.424;11.764;2022-12-18T15:30:25;-7.50;1.40
2174;DHT22;1093;51.424;11.764;2022-12-18T15:32:55;-7.40;1.40
2174;DHT22;1093;51.424;11.764;2022-12-18T15:35:39;-7.40;1.40
2174;DHT22;1093;51.424;11.764;2022-12-18T15:38:06;-7.50;1.40
2174;DHT22;1093;51.424;11.764;2022-12-18T15:40:33;-7.40;1.40
2174;DHT22;1093;51.424;11.764;2022-12-18T15:43:00;-7.40;1.40
2174;DHT22;1093;51.424;11.764;2022-12-18T15:45:52;-7.50;1.40
2174;DHT22;1093;51.424;11.764;2022-12-18T15:48:21;-7.40;1.40
2174;DHT22;1093;51.424;11.764;2022-12-18T15:50:49;-7.40;1.40
2174;DHT22;1093;51.424;11.764;2022-12-18T15:53:32;-7.50;1.40
2174;DHT22;1093;51.424;11.764;2022-12-18T15:55:59;-7.50;1.40
2174;DHT22;1093;51.424;11.764;2022-12-18T15:58:44;-7.40;1.40
2174;DHT22;1093;51.424;11.764;2022-12-18T16:01:12;-7.40;1.40
2174;DHT22;1093;51.424;11.764;2022-12-18T16:03:39;-7.40;1.40
2174;DHT22;1093;51.424;11.764;2022-12-18T16:06:09;-7.40;1.40
2174;DHT22;1093;51.424;11.764;2022-12-18T16:08:40;-7.40;1.40
2174;DHT22;1093;51.424;11.764;2022-12-18T16:11:20;-7.40;1.40
2174;DHT22;1093;51.424;11.764;2022-12-18T16:14:04;-7.30;1.40
2174;DHT22;1093;51.424;11.764;2022-12-18T16:16:35;-7.30;1.40
2174;DHT22;1093;51.424;11.764;2022-12-18T16:22:18;-7.00;1.40
2174;DHT22;1093;51.424;11.764;2022-12-18T16:26:36;-6.80;1.40
2174;DHT22;1093;51.424;11.764;2022-12-18T16:27:56;-6.60;1.40
2174;DHT22;1093;51.424;11.764;2022-12-18T16:30:25;-6.50;1.40
2174;DHT22;1093;51.424;11.764;2022-12-18T16:32:55;-6.40;1.40
2174;DHT22;1093;51.424;11.764;2022-12-18T16:35:23;-6.30;1.40
2174;DHT22;1093;51.424;11.764;2022-12-18T16:37:50;-6.20;1.40
2174;DHT22;1093;51.424;11.764;2022-12-18T16:40:18;-6.20;1.40
2174;DHT22;1093;51.424;11.764;2022-12-18T16:42:45;-6.10;1.40
2174;DHT22;1093;51.424;11.764;2022-12-18T16:45:17;-6.10;1.40
2174;DHT22;1093;51.424;11.764;2022-12-18T16:47:44;-6.00;1.40
2174;DHT22;1093;51.424;11.764;2022-12-18T16:50:12;-6.00;1.40
2174;DHT22;1093;51.424;11.764;2022-12-18T16:52:40;-6.00;1.40
2174;DHT22;1093;51.424;11.764;2022-12-18T16:55:15;-5.90;1.40
2174;DHT22;1093;51.424;11.764;2022-12-18T16:57:47;-5.90;1.40
2174;DHT22;1093;51.424;11.764;2022-12-18T17:00:15;-5.90;1.40
2174;DHT22;1093;51.424;11.764;2022-12-18T17:02:43;-5.90;1.40
2174;DHT22;1093;51.424;11.764;2022-12-18T17:12:09;-5.80;1.40
2174;DHT22;1093;51.424;11.764;2022-12-18T17:14:36;-5.80;1.40
2174;DHT22;1093;51.424;11.764;2022-12-18T17:17:03;-5.80;1.40
2174;DHT22;1093;51.424;11.764;2022-12-18T17:19:30;-5.80;1.40
2174;DHT22;1093;51.424;11.764;2022-12-18T17:21:57;-5.80;1.40